Terminal Aerodrome Forecast
Issued by NWS

Home | Current Version | Previous Version | Text Only | Print | Product List | Glossary On
Versions: 1 2 3 4 5 6 7 8 9 10 11 12 13 14 15 16 17 18 19 20 21 22 23 24 25 26 27
000
FTUS45 KGGW 040540 AAB
TAFGDV
TAF AMD
KGDV 040540Z 0406/0506 36015G25KT P6SM VCTS SCT060CB BKN100
     FM040900 01013KT P6SM VCTS SCT080CB BKN120
     FM041500 03010KT P6SM SCT200
     FM050200 03015KT P6SM SCT120
      AMD LTD TO CLD VIS AND WIND=

USA.gov is the U.S. government's official web portal to all federal, state and local government web resources and services.